createdAt,value
2022-11-09T00:12:22.212Z,9.00
2022-11-09T00:14:23.766Z,9.00
2022-11-09T00:16:25.397Z,9.00
2022-11-09T00:18:26.922Z,9.00
2022-11-09T00:20:28.787Z,9.00
2022-11-09T00:22:30.369Z,9.00
2022-11-09T00:24:31.964Z,9.00
2022-11-09T00:36:26.894Z,9.00
2022-11-09T00:38:28.421Z,9.00
2022-11-09T00:40:30.501Z,9.00
2022-11-09T00:42:32.035Z,8.90
2022-11-09T00:44:33.574Z,8.90
2022-11-09T00:46:35.163Z,9.00
2022-11-09T00:48:36.921Z,9.00
2022-11-09T00:50:38.558Z,9.00
2022-11-09T00:52:40.121Z,9.00
2022-11-09T00:54:41.736Z,9.10
2022-11-09T00:56:43.390Z,9.20
2022-11-09T00:58:44.928Z,9.10
2022-11-09T01:00:46.623Z,9.10
2022-11-09T01:02:52.317Z,9.00
2022-11-09T01:04:53.865Z,9.00
2022-11-09T01:06:55.545Z,9.10
2022-11-09T01:08:57.740Z,9.10
2022-11-09T01:11:03.642Z,9.00
2022-11-09T01:13:05.159Z,9.00
2022-11-09T01:15:06.985Z,9.10
2022-11-09T01:17:08.523Z,9.10
2022-11-09T01:19:10.048Z,9.10
2022-11-09T01:21:12.697Z,9.10
2022-11-09T01:23:15.244Z,9.10
2022-11-09T01:25:16.922Z,9.10
2022-11-09T01:27:18.488Z,9.10
2022-11-09T01:29:20.086Z,9.20
2022-11-09T01:31:22.685Z,9.10
2022-11-09T01:33:24.282Z,9.10
2022-11-09T01:35:25.827Z,9.10
2022-11-09T01:37:27.386Z,9.10
2022-11-09T01:39:28.922Z,9.10
2022-11-09T01:41:30.543Z,9.10
2022-11-09T01:43:32.152Z,9.10
2022-11-09T01:45:33.725Z,9.00
2022-11-09T01:47:35.622Z,9.10
2022-11-09T01:49:47.001Z,9.10
2022-11-09T01:51:59.190Z,9.10
2022-11-09T01:54:09.700Z,9.10
2022-11-09T01:56:12.394Z,9.10
2022-11-09T01:58:36.926Z,9.10
2022-11-09T02:00:41.891Z,9.10
2022-11-09T02:02:46.071Z,9.10
2022-11-09T02:04:51.735Z,9.00
2022-11-09T02:06:55.169Z,9.10
2022-11-09T02:09:00.072Z,9.20
2022-11-09T02:11:07.556Z,9.30
2022-11-09T02:13:10.894Z,9.40
2022-11-09T02:15:13.156Z,9.30
2022-11-09T02:17:14.691Z,9.30
2022-11-09T02:19:16.312Z,9.20
2022-11-09T02:21:18.023Z,9.20
2022-11-09T02:23:20.341Z,9.20
2022-11-09T02:25:22.084Z,9.30
2022-11-09T02:27:24.050Z,9.30
2022-11-09T02:29:33.624Z,9.40
2022-11-09T02:31:37.479Z,9.40
2022-11-09T02:33:50.961Z,9.40
2022-11-09T02:35:52.540Z,9.40
2022-11-09T02:37:54.083Z,9.40
2022-11-09T02:39:56.938Z,9.40
2022-11-09T02:42:04.462Z,9.40
2022-11-09T02:44:07.419Z,9.40
2022-11-09T02:46:09.022Z,9.40
2022-11-09T02:48:10.634Z,9.60
2022-11-09T02:50:12.223Z,9.60
2022-11-09T02:52:14.783Z,9.50
2022-11-09T02:54:16.367Z,9.50
2022-11-09T02:56:17.913Z,9.50
2022-11-09T02:58:19.524Z,9.50
2022-11-09T03:00:21.128Z,9.50
2022-11-09T03:02:22.722Z,9.50
2022-11-09T03:04:24.256Z,9.50
2022-11-09T03:06:34.557Z,9.50
2022-11-09T03:08:36.710Z,9.60
2022-11-09T03:10:38.239Z,9.60
2022-11-09T03:12:39.786Z,9.60
2022-11-09T03:14:41.300Z,9.80
2022-11-09T03:16:47.764Z,9.70
2022-11-09T03:18:52.373Z,9.70
2022-11-09T03:20:53.924Z,9.70
2022-11-09T03:22:59.302Z,9.60
2022-11-09T03:25:00.933Z,9.70
2022-11-09T03:27:02.550Z,9.70
2022-11-09T03:29:04.130Z,9.70
2022-11-09T03:31:05.719Z,9.70
2022-11-09T03:33:10.390Z,9.70
2022-11-09T03:35:11.964Z,9.80
2022-11-09T03:37:13.562Z,9.70
2022-11-09T03:39:15.151Z,9.80
2022-11-09T03:41:18.223Z,9.80
2022-11-09T03:43:20.030Z,9.90
2022-11-09T03:45:22.003Z,9.80
2022-11-09T03:47:23.535Z,9.80
2022-11-09T03:49:25.115Z,9.80
2022-11-09T03:51:26.682Z,9.90
2022-11-09T03:53:28.288Z,9.80
2022-11-09T03:55:30.771Z,9.80
2022-11-09T03:57:32.783Z,9.70
2022-11-09T03:59:34.383Z,9.70
2022-11-09T04:01:36.016Z,9.70
2022-11-09T04:03:39.422Z,9.70
2022-11-09T04:05:41.101Z,9.70
2022-11-09T04:07:53.061Z,9.80
2022-11-09T04:09:54.602Z,9.80
2022-11-09T04:11:56.230Z,9.80
2022-11-09T04:13:58.834Z,9.80
2022-11-09T04:16:00.392Z,9.80
2022-11-09T04:18:02.494Z,9.80
2022-11-09T04:20:04.622Z,9.70
2022-11-09T04:22:06.343Z,9.70
2022-11-09T04:24:07.933Z,9.70
2022-11-09T04:26:09.573Z,9.70
2022-11-09T04:28:11.817Z,9.80
2022-11-09T04:30:13.463Z,9.80
2022-11-09T04:32:15.020Z,9.70
2022-11-09T04:34:17.179Z,9.70
2022-11-09T04:36:24.608Z,9.70
2022-11-09T04:38:26.152Z,9.70
2022-11-09T04:40:42.342Z,9.70
2022-11-09T04:42:43.882Z,9.70
2022-11-09T04:44:45.421Z,9.70
2022-11-09T04:46:46.994Z,9.70
2022-11-09T04:48:48.597Z,9.70
2022-11-09T04:50:50.145Z,9.70
2022-11-09T04:52:51.734Z,9.70
2022-11-09T04:54:53.414Z,9.70
2022-11-09T04:56:54.929Z,9.70
2022-11-09T04:58:56.498Z,9.70
2022-11-09T05:01:04.982Z,9.70
2022-11-09T05:03:06.839Z,9.70
2022-11-09T05:05:08.605Z,9.70
2022-11-09T05:07:10.305Z,9.70
2022-11-09T05:09:11.876Z,9.80
2022-11-09T05:11:13.435Z,9.80
2022-11-09T05:13:16.038Z,9.70
2022-11-09T05:15:17.588Z,9.70
2022-11-09T05:17:19.262Z,9.80
2022-11-09T05:19:22.549Z,9.80
2022-11-09T05:21:24.196Z,9.80
2022-11-09T05:23:44.263Z,9.80
2022-11-09T05:25:47.315Z,9.90
2022-11-09T05:27:48.862Z,9.90
2022-11-09T05:29:50.408Z,9.90
2022-11-09T05:31:53.092Z,9.90
2022-11-09T05:33:55.084Z,9.90
2022-11-09T05:35:56.699Z,9.90
2022-11-09T05:37:58.259Z,9.90
2022-11-09T05:40:00.007Z,9.90
2022-11-09T05:42:01.587Z,9.90
2022-11-09T05:44:03.169Z,9.90
2022-11-09T05:46:06.786Z,9.90
2022-11-09T05:48:08.584Z,9.90
2022-11-09T05:50:11.678Z,9.90
2022-11-09T05:52:13.349Z,9.90
2022-11-09T05:54:14.946Z,9.90
2022-11-09T05:56:16.525Z,9.80
2022-11-09T05:58:18.078Z,9.80
2022-11-09T06:00:20.141Z,9.80
2022-11-09T06:02:22.058Z,9.80
2022-11-09T06:04:23.731Z,9.90
2022-11-09T06:06:25.272Z,9.80
2022-11-09T06:08:26.949Z,9.80
2022-11-09T06:10:28.499Z,9.80
2022-11-09T06:12:31.295Z,9.80
2022-11-09T06:14:33.046Z,9.80
2022-11-09T06:16:34.631Z,9.80
2022-11-09T06:18:37.121Z,9.80
2022-11-09T06:20:38.657Z,9.80
2022-11-09T06:22:40.334Z,9.70
2022-11-09T06:24:42.312Z,9.70
2022-11-09T06:26:43.888Z,9.70
2022-11-09T06:28:45.525Z,9.70
2022-11-09T06:30:47.055Z,9.70
2022-11-09T06:32:48.617Z,9.70
2022-11-09T06:34:50.172Z,9.70
2022-11-09T06:36:51.849Z,9.80
2022-11-09T06:38:53.454Z,9.80
2022-11-09T06:40:56.946Z,9.80
2022-11-09T06:42:59.253Z,9.80
2022-11-09T06:45:00.906Z,9.80
2022-11-09T06:47:02.509Z,9.80
2022-11-09T06:49:04.079Z,9.70
2022-11-09T06:51:06.213Z,9.80
2022-11-09T06:53:09.930Z,9.80
2022-11-09T06:55:11.485Z,9.70
2022-11-09T06:57:13.119Z,9.80
2022-11-09T06:59:14.741Z,9.80
2022-11-09T07:01:17.934Z,9.80
2022-11-09T07:03:20.642Z,9.80
2022-11-09T07:05:22.370Z,9.80
2022-11-09T07:07:27.969Z,9.80
2022-11-09T07:09:29.995Z,9.90
2022-11-09T07:11:31.689Z,9.90
2022-11-09T07:13:33.313Z,9.90
2022-11-09T07:15:36.871Z,9.90
2022-11-09T07:17:39.747Z,9.90
2022-11-09T07:19:41.381Z,10.00
2022-11-09T07:21:42.973Z,10.00
2022-11-09T07:23:46.642Z,10.00
2022-11-09T07:25:48.264Z,10.10
2022-11-09T07:27:49.845Z,10.10
2022-11-09T07:29:51.382Z,10.10
2022-11-09T07:31:52.961Z,10.20
2022-11-09T07:33:55.518Z,10.20
2022-11-09T07:35:58.931Z,10.20
2022-11-09T07:38:01.422Z,10.20
2022-11-09T07:40:03.539Z,10.20
2022-11-09T07:42:05.132Z,10.20
2022-11-09T07:44:06.769Z,10.20
2022-11-09T07:46:14.984Z,10.30
2022-11-09T07:48:17.131Z,10.30
2022-11-09T07:50:18.730Z,10.40
2022-11-09T07:52:20.301Z,10.40
2022-11-09T07:54:21.900Z,10.40
2022-11-09T07:56:23.451Z,10.50
2022-11-09T07:58:25.246Z,10.60
2022-11-09T08:00:27.613Z,10.50
2022-11-09T08:02:29.170Z,10.60
2022-11-09T08:04:30.781Z,10.70
2022-11-09T08:06:32.638Z,10.80
2022-11-09T08:08:34.203Z,10.80
2022-11-09T08:10:36.155Z,10.80
2022-11-09T08:12:37.772Z,10.80
2022-11-09T08:14:40.384Z,10.90
2022-11-09T08:16:41.975Z,10.90
2022-11-09T08:18:43.614Z,10.90
2022-11-09T08:20:45.252Z,10.90
2022-11-09T08:22:47.946Z,10.90
2022-11-09T08:24:50.170Z,10.90
2022-11-09T08:26:51.893Z,10.90
2022-11-09T08:28:53.617Z,11.00
2022-11-09T08:31:00.062Z,11.00
2022-11-09T08:33:02.629Z,11.00
2022-11-09T08:35:04.480Z,11.00
2022-11-09T08:37:06.334Z,11.10
2022-11-09T08:39:08.072Z,11.10
2022-11-09T08:41:13.458Z,11.10
2022-11-09T08:43:15.559Z,11.10
2022-11-09T08:45:17.362Z,11.20
2022-11-09T08:47:18.931Z,11.20
2022-11-09T08:49:20.481Z,11.30
2022-11-09T08:51:22.172Z,11.40
2022-11-09T08:53:24.495Z,11.40
2022-11-09T08:55:26.142Z,11.50
2022-11-09T08:57:28.262Z,11.60
2022-11-09T08:59:29.866Z,11.60
2022-11-09T09:01:31.855Z,11.60
2022-11-09T09:03:33.521Z,11.70
2022-11-09T09:05:35.577Z,11.70
2022-11-09T09:07:37.388Z,11.80
2022-11-09T09:09:39.302Z,11.80
2022-11-09T09:11:40.860Z,11.80
2022-11-09T09:13:43.715Z,11.90
2022-11-09T09:15:45.657Z,11.90
2022-11-09T09:17:47.480Z,11.90
2022-11-09T09:19:51.468Z,11.90
2022-11-09T09:21:58.090Z,11.90
2022-11-09T09:24:00.334Z,11.90
2022-11-09T09:26:02.627Z,11.90
2022-11-09T09:28:08.212Z,11.90
2022-11-09T09:30:10.146Z,11.90
2022-11-09T09:32:12.120Z,11.90
2022-11-09T09:34:16.341Z,11.90
2022-11-09T09:36:20.337Z,11.90
2022-11-09T09:38:22.394Z,11.90
2022-11-09T09:40:28.332Z,11.90
2022-11-09T09:42:32.206Z,11.90
2022-11-09T09:44:43.324Z,11.90
2022-11-09T09:46:53.315Z,12.00
2022-11-09T09:48:58.474Z,12.00
2022-11-09T09:51:02.747Z,12.10
2022-11-09T09:53:29.593Z,12.20
2022-11-09T09:55:38.747Z,12.20
2022-11-09T09:57:42.390Z,12.40
2022-11-09T09:59:47.378Z,12.50
2022-11-09T10:01:49.353Z,12.50
2022-11-09T10:03:51.166Z,12.60
2022-11-09T10:06:05.997Z,12.70
2022-11-09T10:08:18.678Z,12.80
2022-11-09T10:10:26.665Z,12.80
2022-11-09T10:12:38.402Z,12.90
2022-11-09T10:14:59.499Z,12.90
2022-11-09T10:17:06.632Z,12.90
2022-11-09T10:21:58.914Z,13.10
2022-11-09T10:24:19.666Z,13.10
2022-11-09T10:26:38.298Z,13.20
2022-11-09T10:29:14.431Z,13.30
2022-11-09T10:31:22.674Z,13.30
2022-11-09T10:33:38.410Z,13.40
2022-11-09T10:35:49.572Z,13.50
2022-11-09T10:37:57.909Z,13.60
2022-11-09T10:39:59.564Z,13.70
2022-11-09T10:42:03.533Z,13.70
2022-11-09T10:44:05.747Z,13.80
2022-11-09T10:46:18.760Z,13.80
2022-11-09T10:48:30.062Z,13.90
2022-11-09T10:50:49.494Z,13.90
2022-11-09T10:52:51.251Z,14.00
2022-11-09T10:54:52.838Z,14.00
2022-11-09T10:57:09.796Z,14.10
2022-11-09T10:59:47.119Z,14.10
2022-11-09T11:01:48.799Z,14.20
2022-11-09T11:03:51.808Z,14.30
2022-11-09T11:05:58.316Z,14.40
2022-11-09T11:08:11.940Z,14.40
2022-11-09T11:10:16.530Z,14.40
2022-11-09T11:12:20.590Z,14.40
2022-11-09T11:14:35.568Z,14.40
2022-11-09T11:16:48.196Z,14.40
2022-11-09T11:18:50.233Z,14.30
2022-11-09T11:21:14.937Z,14.30
2022-11-09T11:23:21.916Z,14.20
2022-11-09T11:25:25.029Z,14.10
2022-11-09T11:27:29.819Z,14.10
2022-11-09T11:29:33.717Z,14.20
2022-11-09T11:31:35.448Z,14.20
2022-11-09T11:33:37.041Z,14.20
2022-11-09T11:35:42.100Z,14.20
2022-11-09T11:37:49.759Z,14.30
2022-11-09T11:40:02.874Z,14.30
2022-11-09T11:42:25.396Z,14.40
2022-11-09T11:44:49.179Z,14.40
2022-11-09T11:46:56.329Z,14.40
2022-11-09T11:49:00.785Z,14.40
2022-11-09T11:51:05.392Z,14.40
2022-11-09T11:53:07.010Z,14.40
2022-11-09T11:55:23.867Z,14.30
2022-11-09T11:57:37.710Z,14.30
2022-11-09T11:59:42.836Z,14.30
2022-11-09T12:02:04.620Z,14.30
2022-11-09T12:04:06.168Z,14.40
2022-11-09T12:06:19.732Z,14.30
2022-11-09T12:08:28.806Z,14.30
2022-11-09T12:10:31.205Z,14.30
2022-11-09T12:12:48.479Z,14.40
2022-11-09T12:14:55.971Z,14.50
2022-11-09T12:17:07.447Z,14.50
2022-11-09T12:19:35.401Z,14.60
2022-11-09T12:21:56.985Z,14.60
2022-11-09T12:24:04.339Z,14.60
2022-11-09T12:26:08.464Z,14.60
2022-11-09T12:28:27.238Z,14.60
2022-11-09T12:30:44.500Z,14.60
2022-11-09T12:33:00.357Z,14.60
2022-11-09T12:35:01.884Z,14.60
2022-11-09T12:37:09.572Z,14.60
2022-11-09T12:39:25.931Z,14.60
2022-11-09T12:41:33.399Z,14.60
2022-11-09T12:43:42.248Z,14.60
2022-11-09T12:45:45.796Z,14.60
2022-11-09T12:47:47.602Z,14.60
2022-11-09T12:49:49.358Z,14.60
2022-11-09T12:51:54.353Z,14.60
2022-11-09T12:54:00.761Z,14.70
2022-11-09T12:56:17.550Z,14.80
2022-11-09T12:58:22.393Z,14.80
2022-11-09T13:00:33.717Z,14.90
2022-11-09T13:02:52.918Z,14.90
2022-11-09T13:04:55.939Z,14.90
2022-11-09T13:07:04.024Z,14.90
2022-11-09T13:09:07.577Z,14.90
2022-11-09T13:11:19.958Z,14.90
2022-11-09T13:13:22.989Z,14.80
2022-11-09T13:15:28.980Z,14.80
2022-11-09T13:17:31.008Z,14.80
2022-11-09T13:19:35.784Z,14.70
2022-11-09T13:21:38.051Z,14.60
2022-11-09T13:24:02.840Z,14.70
2022-11-09T13:26:02.193Z,14.60
2022-11-09T13:28:03.754Z,14.60
2022-11-09T13:30:28.336Z,14.50
2022-11-09T13:32:33.158Z,14.50
2022-11-09T13:34:44.162Z,14.40
2022-11-09T13:37:05.685Z,14.50
2022-11-09T13:39:25.870Z,14.40
2022-11-09T13:41:31.735Z,14.40
2022-11-09T13:43:34.976Z,14.40
2022-11-09T13:45:38.409Z,14.30
2022-11-09T13:47:48.475Z,14.30
2022-11-09T13:49:50.874Z,14.30
2022-11-09T13:51:52.442Z,14.30
2022-11-09T13:53:54.057Z,14.30
2022-11-09T13:55:55.773Z,14.20
2022-11-09T13:57:59.643Z,14.20
2022-11-09T14:00:02.329Z,14.20
2022-11-09T14:02:14.792Z,14.20
2022-11-09T14:04:22.620Z,14.20
2022-11-09T14:06:24.490Z,14.20
2022-11-09T14:08:28.972Z,14.20
2022-11-09T14:10:38.324Z,14.20
2022-11-09T14:12:55.439Z,14.10
2022-11-09T14:15:06.050Z,14.10
2022-11-09T14:17:15.353Z,14.00
2022-11-09T14:19:19.997Z,14.00
2022-11-09T14:21:31.964Z,13.90
2022-11-09T14:23:34.150Z,13.90
2022-11-09T14:25:36.799Z,13.90
2022-11-09T14:27:45.839Z,13.80
2022-11-09T14:29:49.236Z,13.80
2022-11-09T14:31:50.869Z,13.80
2022-11-09T14:34:00.124Z,13.80
2022-11-09T14:36:04.504Z,13.80
2022-11-09T14:38:17.382Z,13.80
2022-11-09T14:40:32.536Z,13.70
2022-11-09T14:42:34.485Z,13.70
2022-11-09T14:44:43.765Z,13.70
2022-11-09T14:46:51.816Z,13.70
2022-11-09T14:48:55.074Z,13.60
2022-11-09T14:50:58.888Z,13.60
2022-11-09T14:53:01.307Z,13.60
2022-11-09T14:55:03.401Z,13.50
2022-11-09T14:57:05.043Z,13.60
2022-11-09T14:59:07.718Z,13.60
2022-11-09T15:01:09.278Z,13.60
2022-11-09T15:03:31.253Z,13.50
2022-11-09T15:05:32.975Z,13.50
2022-11-09T15:07:35.148Z,13.50
2022-11-09T15:09:44.386Z,13.50
2022-11-09T15:11:46.669Z,13.50
2022-11-09T15:13:48.286Z,13.50
2022-11-09T15:15:50.749Z,13.40
2022-11-09T15:17:52.451Z,13.40
2022-11-09T15:19:54.069Z,13.40
2022-11-09T15:21:55.676Z,13.40
2022-11-09T15:24:05.286Z,13.40
2022-11-09T15:26:23.687Z,13.30
2022-11-09T15:28:26.492Z,13.30
2022-11-09T15:30:29.484Z,13.30
2022-11-09T15:32:35.448Z,13.30
2022-11-09T15:34:41.967Z,13.30
2022-11-09T15:36:46.086Z,13.20
2022-11-09T15:39:02.806Z,13.20
2022-11-09T15:41:21.426Z,13.20
2022-11-09T15:43:23.043Z,13.10
2022-11-09T15:45:24.633Z,13.10
2022-11-09T15:47:31.846Z,13.10
2022-11-09T15:49:33.429Z,13.00
2022-11-09T15:51:35.295Z,13.00
2022-11-09T15:53:36.900Z,13.00
2022-11-09T15:55:38.567Z,13.00
2022-11-09T15:57:40.304Z,13.00
2022-11-09T15:59:41.920Z,13.00
2022-11-09T16:01:43.492Z,13.00
2022-11-09T16:03:45.177Z,13.00
2022-11-09T16:05:47.078Z,12.90
2022-11-09T16:07:53.006Z,12.90
2022-11-09T16:09:54.596Z,12.90
2022-11-09T16:11:56.255Z,12.90
2022-11-09T16:14:01.508Z,12.90
2022-11-09T16:16:04.209Z,12.90
2022-11-09T16:18:05.829Z,12.90
2022-11-09T16:20:07.683Z,12.90
2022-11-09T16:22:09.892Z,12.90
2022-11-09T16:24:11.532Z,12.90
2022-11-09T16:26:16.541Z,12.90
2022-11-09T16:28:19.523Z,12.90
2022-11-09T16:30:21.659Z,12.90
2022-11-09T16:32:23.309Z,12.80
2022-11-09T16:34:24.968Z,12.80
2022-11-09T16:36:27.547Z,12.80
2022-11-09T16:38:30.289Z,12.80
2022-11-09T16:40:31.948Z,12.80
2022-11-09T16:42:34.102Z,12.80
2022-11-09T16:44:37.850Z,12.80
2022-11-09T16:46:40.651Z,12.80
2022-11-09T16:48:42.323Z,12.80
2022-11-09T16:50:44.809Z,12.80
2022-11-09T16:52:46.389Z,12.70
2022-11-09T16:54:48.048Z,12.80
2022-11-09T16:56:49.761Z,12.80
2022-11-09T16:58:51.650Z,12.70
2022-11-09T17:01:11.102Z,12.70
2022-11-09T17:03:14.480Z,12.70
2022-11-09T17:05:16.153Z,12.70
2022-11-09T17:07:17.813Z,12.70
2022-11-09T17:09:20.625Z,12.70
2022-11-09T17:11:22.210Z,12.70
2022-11-09T17:13:24.795Z,12.70
2022-11-09T17:15:26.640Z,12.70
2022-11-09T17:17:28.400Z,12.70
2022-11-09T17:19:33.868Z,12.70
2022-11-09T17:21:35.700Z,12.60
2022-11-09T17:23:37.632Z,12.60
2022-11-09T17:25:39.250Z,12.70
2022-11-09T17:27:40.902Z,12.70
2022-11-09T17:29:42.530Z,12.70
2022-11-09T17:31:45.222Z,12.70
2022-11-09T17:33:47.050Z,12.70
2022-11-09T17:35:57.178Z,12.70
2022-11-09T17:37:58.785Z,12.70
2022-11-09T17:40:01.562Z,12.70
2022-11-09T17:42:03.364Z,12.70
2022-11-09T17:44:05.001Z,12.70
2022-11-09T17:46:07.983Z,12.70
2022-11-09T17:48:10.611Z,12.70
2022-11-09T17:50:12.205Z,12.70
2022-11-09T17:52:14.799Z,12.70
2022-11-09T17:54:16.491Z,12.70
2022-11-09T17:56:18.221Z,12.70
2022-11-09T17:58:20.198Z,12.70
2022-11-09T18:00:23.454Z,12.70
2022-11-09T18:02:25.380Z,12.70
2022-11-09T18:04:27.020Z,12.60
2022-11-09T18:06:29.303Z,12.60
2022-11-09T18:08:30.954Z,12.70
2022-11-09T18:10:32.570Z,12.60
2022-11-09T18:12:34.126Z,12.60
2022-11-09T18:14:36.160Z,12.60
2022-11-09T18:16:37.803Z,12.60
2022-11-09T18:18:39.370Z,12.60
2022-11-09T18:20:40.938Z,12.70
2022-11-09T18:22:42.584Z,12.70
2022-11-09T18:24:44.236Z,12.70
2022-11-09T18:26:46.831Z,12.70
2022-11-09T18:28:48.457Z,12.60
2022-11-09T18:30:50.049Z,12.60
2022-11-09T18:32:52.264Z,12.60
2022-11-09T18:34:53.847Z,12.60
2022-11-09T18:36:55.395Z,12.60
2022-11-09T18:38:57.505Z,12.60
2022-11-09T18:41:03.248Z,12.50
2022-11-09T18:43:04.973Z,12.50
2022-11-09T18:45:07.374Z,12.50
2022-11-09T18:47:09.641Z,12.50
2022-11-09T18:49:14.183Z,12.40
2022-11-09T18:51:20.251Z,12.40
2022-11-09T18:53:22.807Z,12.40
2022-11-09T18:55:24.663Z,12.40
2022-11-09T18:57:26.303Z,12.40
2022-11-09T18:59:27.874Z,12.40
2022-11-09T19:01:29.617Z,12.40
2022-11-09T19:03:31.553Z,12.40
2022-11-09T19:05:36.695Z,12.30
2022-11-09T19:07:38.358Z,12.30
2022-11-09T19:09:42.177Z,12.30
2022-11-09T19:11:43.766Z,12.30
2022-11-09T19:13:52.653Z,12.30
2022-11-09T19:15:58.189Z,12.30
2022-11-09T19:18:00.310Z,12.30
2022-11-09T19:20:01.893Z,12.30
2022-11-09T19:22:05.039Z,12.30
2022-11-09T19:24:15.489Z,12.30
2022-11-09T19:26:17.306Z,12.30
2022-11-09T19:28:19.402Z,12.30
2022-11-09T19:30:25.481Z,12.30
2022-11-09T19:32:40.257Z,12.30
2022-11-09T19:42:34.987Z,12.20
2022-11-09T19:48:29.859Z,12.20
2022-11-09T19:50:32.886Z,12.20
2022-11-09T19:52:43.497Z,12.20
2022-11-09T19:55:00.915Z,12.20
2022-11-09T19:57:02.737Z,12.20
2022-11-09T20:04:43.528Z,12.20
2022-11-09T20:06:45.704Z,12.20
2022-11-09T20:08:48.217Z,12.20
2022-11-09T20:10:52.665Z,12.20
2022-11-09T20:12:55.586Z,12.20
2022-11-09T20:14:58.085Z,12.10
2022-11-09T20:17:03.319Z,12.10
2022-11-09T20:19:07.057Z,12.10
2022-11-09T20:21:09.401Z,12.10
2022-11-09T20:23:11.697Z,12.10
2022-11-09T20:25:13.895Z,12.10
2022-11-09T20:27:15.717Z,12.10
2022-11-09T20:29:17.542Z,12.10
2022-11-09T20:31:21.061Z,12.10
2022-11-09T20:33:23.130Z,12.10
2022-11-09T20:35:24.844Z,12.10
2022-11-09T20:37:28.101Z,12.10
2022-11-09T20:39:29.882Z,12.10
2022-11-09T20:41:32.857Z,12.10
2022-11-09T20:43:35.639Z,12.10
2022-11-09T20:45:37.311Z,12.10
2022-11-09T20:48:05.033Z,12.10
2022-11-09T20:50:03.389Z,12.10
2022-11-09T20:52:05.313Z,12.10
2022-11-09T20:54:10.224Z,12.10
2022-11-09T20:56:14.070Z,12.10
2022-11-09T20:58:15.660Z,12.10
2022-11-09T21:00:23.117Z,12.00
2022-11-09T21:02:25.914Z,12.00
2022-11-09T21:04:35.558Z,12.00
2022-11-09T21:06:38.228Z,12.00
2022-11-09T21:08:43.571Z,12.00
2022-11-09T21:10:46.066Z,12.00
2022-11-09T21:12:49.296Z,12.00
2022-11-09T21:14:51.725Z,12.00
2022-11-09T21:16:53.519Z,12.00
2022-11-09T21:18:55.615Z,12.10
2022-11-09T21:22:02.988Z,12.10
2022-11-09T21:24:27.364Z,12.10
2022-11-09T21:26:50.239Z,12.00
2022-11-09T21:29:10.377Z,12.00
2022-11-09T21:31:17.393Z,12.00
2022-11-09T21:33:19.181Z,12.00
2022-11-09T21:35:21.628Z,11.90
2022-11-09T21:37:26.566Z,11.90
2022-11-09T21:39:28.389Z,11.90
2022-11-09T21:41:40.400Z,11.90
2022-11-09T21:43:42.432Z,11.90
2022-11-09T21:45:54.054Z,12.00
2022-11-09T21:47:55.834Z,12.00
2022-11-09T21:49:57.865Z,12.00
2022-11-09T21:52:00.280Z,12.00
2022-11-09T21:54:08.530Z,12.00
2022-11-09T21:56:10.517Z,12.00
2022-11-09T21:58:12.363Z,12.00
2022-11-09T22:00:15.750Z,12.00
2022-11-09T22:02:17.577Z,11.90
2022-11-09T22:04:22.724Z,11.90
2022-11-09T22:06:25.614Z,11.90
2022-11-09T22:08:27.479Z,11.90
2022-11-09T22:10:32.807Z,11.90
2022-11-09T22:12:55.250Z,11.90
2022-11-09T22:15:17.615Z,11.90
2022-11-09T22:17:25.887Z,11.90
2022-11-09T22:19:56.690Z,11.80
2022-11-09T22:22:06.849Z,11.90
2022-11-09T22:24:59.142Z,11.90
2022-11-09T22:27:42.785Z,11.80
2022-11-09T22:29:52.115Z,11.80
2022-11-09T22:31:55.748Z,11.80
2022-11-09T22:33:57.867Z,11.80
2022-11-09T22:36:09.425Z,11.80
2022-11-09T22:38:12.491Z,11.70
2022-11-09T22:40:14.433Z,11.70
2022-11-09T22:42:16.086Z,11.70
2022-11-09T22:44:19.891Z,11.70
2022-11-09T22:46:27.055Z,11.70
2022-11-09T22:48:30.616Z,11.70
2022-11-09T22:50:32.255Z,11.70
2022-11-09T22:52:33.840Z,11.70
2022-11-09T22:54:35.607Z,11.70
2022-11-09T22:56:37.301Z,11.70
2022-11-09T22:58:38.902Z,11.70
2022-11-09T23:00:41.597Z,11.70
2022-11-09T23:02:43.128Z,11.70
2022-11-09T23:04:45.838Z,11.70
2022-11-09T23:06:47.458Z,11.70
2022-11-09T23:08:49.204Z,11.70
2022-11-09T23:10:55.236Z,11.70
2022-11-09T23:12:58.402Z,11.70
2022-11-09T23:15:06.306Z,11.60
2022-11-09T23:17:27.823Z,11.70
2022-11-09T23:19:29.414Z,11.60
2022-11-09T23:21:32.541Z,11.60
2022-11-09T23:23:34.511Z,11.60
2022-11-09T23:25:54.523Z,11.60
2022-11-09T23:27:56.068Z,11.70
2022-11-09T23:29:57.613Z,11.70
2022-11-09T23:31:59.201Z,11.70
2022-11-09T23:34:01.532Z,11.70
2022-11-09T23:36:05.933Z,11.70
2022-11-09T23:38:09.885Z,11.70
2022-11-09T23:40:11.712Z,11.70
2022-11-09T23:42:13.271Z,11.70
2022-11-09T23:44:14.889Z,11.70
2022-11-09T23:46:16.912Z,11.80
2022-11-09T23:48:19.041Z,11.80
2022-11-09T23:50:21.153Z,11.80
2022-11-09T23:52:22.714Z,11.80
2022-11-09T23:54:27.415Z,11.70
2022-11-09T23:56:29.075Z,11.70
2022-11-09T23:58:30.680Z,11.70
